Time;durP1;ratioP1;P1;durP2;ratioP2;P2;SDS_P1;SDS_P2;PMS_P1;PMS_P2;Temp;Humidity;BMP_temperature;BMP_pressure;BME280_temperature;BME280_humidity;BME280_pressure;Samples;Min_cycle;Max_cycle;Signal;HPM_P1;HPM_P2
2022/02/13 00:02:07;;;;;;;;;30.25;29.00;;;;;6.14;52.64;101334.66;5070666;28;45279;-76
2022/02/13 00:04:33;;;;;;;;;34.50;29.25;;;;;5.99;52.56;101300.63;5073127;28;45750;-75
2022/02/13 00:10:20;;;;;;;;;33.00;26.75;;;;;6.08;53.38;101305.44;5078698;28;44928;-77
2022/02/13 00:12:45;;;;;;;;;26.50;26.25;;;;;6.05;52.75;101296.00;5077784;28;45691;-76
2022/02/13 00:15:11;;;;;;;;;36.25;27.50;;;;;6.04;53.17;101298.69;5077133;28;45565;-73
2022/02/13 00:17:36;;;;;;;;;30.00;28.25;;;;;6.02;53.41;101295.28;5075122;28;45520;-75
2022/02/13 00:20:04;;;;;;;;;30.75;26.25;;;;;5.96;53.05;101269.53;5074306;28;45455;-75
2022/02/13 00:22:30;;;;;;;;;26.50;24.00;;;;;5.99;52.96;101283.28;5068632;28;46605;-75
2022/02/13 00:24:55;;;;;;;;;29.50;26.50;;;;;5.98;53.27;101275.53;5069114;28;45597;-74
2022/02/13 00:27:20;;;;;;;;;32.00;26.50;;;;;5.90;53.32;101262.81;5063467;28;45696;-77
2022/02/13 00:29:46;;;;;;;;;26.00;23.25;;;;;5.93;53.32;101270.53;5057823;28;45558;-73
2022/02/13 00:32:11;;;;;;;;;30.50;25.75;;;;;5.92;53.02;101266.22;5058350;28;46570;-76
2022/02/13 00:34:36;;;;;;;;;30.00;29.75;;;;;5.92;53.17;101265.38;5058135;28;46273;-77
2022/02/13 00:40:24;;;;;;;;;26.50;23.25;;;;;5.89;53.28;101258.53;5056723;28;45637;-75
2022/02/13 00:42:49;;;;;;;;;29.25;26.25;;;;;5.87;53.80;101248.22;5056752;28;47159;-75
2022/02/13 00:45:15;;;;;;;;;24.50;23.50;;;;;5.80;53.32;101235.50;5058007;28;45737;-75
2022/02/13 00:47:40;;;;;;;;;27.50;23.25;;;;;5.83;53.66;101231.00;5058270;28;45684;-74
2022/02/13 00:50:06;;;;;;;;;27.00;26.00;;;;;5.83;53.54;101231.00;5057740;28;45466;-76
2022/02/13 00:55:53;;;;;;;;;26.75;25.00;;;;;5.78;53.74;101216.50;5054945;28;45668;-77
2022/02/13 00:58:19;;;;;;;;;28.00;22.50;;;;;5.68;53.80;101210.00;5056149;28;45861;-75
2022/02/13 01:00:44;;;;;;;;;27.00;20.75;;;;;5.73;53.95;101210.63;5056364;28;45619;-75
2022/02/13 01:03:09;;;;;;;;;24.00;22.75;;;;;5.74;53.97;101220.13;5055363;28;46317;-76
2022/02/13 01:05:35;;;;;;;;;25.50;23.00;;;;;5.73;53.72;101215.84;5056479;28;45819;-76
2022/02/13 01:08:00;;;;;;;;;22.25;20.25;;;;;5.56;53.80;101177.53;5056364;28;45629;-76
2022/02/13 01:10:26;;;;;;;;;29.00;24.25;;;;;5.71;54.07;101208.13;5056232;28;45558;-75
2022/02/13 01:12:51;;;;;;;;;24.25;21.00;;;;;5.69;53.81;101209.09;5054972;28;47569;-76
2022/02/13 01:15:16;;;;;;;;;25.25;22.00;;;;;5.61;54.22;101188.63;5056292;28;47225;-74
2022/02/13 01:17:42;;;;;;;;;26.75;22.25;;;;;5.70;54.11;101208.19;5056075;28;45567;-75
2022/02/13 01:20:08;;;;;;;;;27.25;23.50;;;;;5.66;53.96;101204.03;5056012;28;45514;-76
2022/02/13 01:25:55;;;;;;;;;28.50;23.50;;;;;5.58;53.70;101185.28;5056198;28;45736;-75
2022/02/13 01:28:21;;;;;;;;;21.75;19.75;;;;;5.64;53.68;101198.03;5056014;28;45456;-75
2022/02/13 01:30:47;;;;;;;;;20.25;17.75;;;;;5.64;53.65;101187.63;5038290;28;45540;-76
2022/02/13 01:33:13;;;;;;;;;28.00;22.25;;;;;5.56;53.77;101179.34;5055918;28;45642;-76
2022/02/13 01:35:38;;;;;;;;;25.50;20.75;;;;;5.60;54.28;101176.53;5056031;28;46368;-75
2022/02/13 01:38:04;;;;;;;;;25.75;24.00;;;;;5.59;53.76;101174.00;5055781;28;45710;-75
2022/02/13 01:40:29;;;;;;;;;25.00;22.75;;;;;5.58;54.28;101180.94;5056341;28;45866;-75
2022/02/13 01:42:55;;;;;;;;;23.00;19.25;;;;;5.59;53.84;101184.38;5055841;28;46613;-74
2022/02/13 01:45:20;;;;;;;;;22.25;20.00;;;;;5.53;54.00;101169.03;5055673;28;47098;-75
2022/02/13 01:47:46;;;;;;;;;26.50;23.25;;;;;5.49;54.00;101171.78;5055736;28;45700;-75
2022/02/13 01:50:11;;;;;;;;;24.25;21.00;;;;;5.56;54.06;101179.34;5055315;28;45648;-76
2022/02/13 01:56:00;;;;;;;;;22.75;19.25;;;;;5.52;54.40;101177.75;5055215;28;45593;-74
2022/02/13 01:58:26;;;;;;;;;22.75;21.75;;;;;5.49;54.41;101176.97;5055352;28;45838;-76
2022/02/13 02:00:52;;;;;;;;;23.25;20.00;;;;;5.46;54.47;101177.09;5055750;28;45498;-74
2022/02/13 02:03:17;;;;;;;;;22.50;19.75;;;;;5.47;54.16;101181.38;5056806;28;46172;-75
2022/02/13 02:05:44;;;;;;;;;23.50;20.75;;;;;5.42;54.31;101165.13;5056279;28;46260;-75
2022/02/13 02:11:31;;;;;;;;;19.75;19.00;;;;;5.44;54.30;101159.88;5055851;28;45678;-74
2022/02/13 02:13:57;;;;;;;;;23.25;21.75;;;;;5.40;54.23;101151.34;5055772;28;46490;-74
2022/02/13 02:16:22;;;;;;;;;19.00;18.00;;;;;5.33;54.42;101147.34;5037130;28;47710;-76
2022/02/13 02:18:48;;;;;;;;;25.75;22.00;;;;;5.37;54.48;101148.91;5054978;28;45685;-76
2022/02/13 02:21:14;;;;;;;;;19.00;19.00;;;;;5.35;54.45;101149.84;5055301;28;45943;-72
2022/02/13 02:23:40;;;;;;;;;21.50;18.25;;;;;5.34;54.42;101154.22;5055322;28;46220;-76
2022/02/13 02:26:06;;;;;;;;;21.75;17.50;;;;;5.32;54.64;101137.00;5055051;28;46081;-73
2022/02/13 02:28:32;;;;;;;;;19.00;17.25;;;;;5.21;54.84;101121.84;5054622;28;45421;-75
2022/02/13 02:30:58;;;;;;;;;21.25;19.50;;;;;5.25;54.72;101132.94;5036614;28;45986;-74
2022/02/13 02:33:23;;;;;;;;;19.00;17.25;;;;;5.20;55.02;101108.91;5055084;28;45536;-73
2022/02/13 02:35:49;;;;;;;;;25.25;19.50;;;;;5.19;54.59;101099.44;5055099;28;45978;-75
2022/02/13 02:41:37;;;;;;;;;17.75;16.25;;;;;5.20;55.00;101093.34;5055207;28;45499;-75
2022/02/13 02:44:02;;;;;;;;;23.75;22.00;;;;;5.14;54.65;101088.38;5054690;28;46552;-73
2022/02/13 02:46:28;;;;;;;;;21.25;18.75;;;;;5.17;54.88;101094.31;5054884;28;45653;-75
2022/02/13 02:48:53;;;;;;;;;20.25;18.25;;;;;5.15;55.12;101085.75;5054864;28;45595;-76
2022/02/13 02:51:19;;;;;;;;;22.00;17.75;;;;;5.14;55.03;101089.25;5054777;28;45609;-75
2022/02/13 02:53:44;;;;;;;;;27.50;21.75;;;;;5.08;55.08;101079.09;5070118;28;47378;-75
2022/02/13 02:56:10;;;;;;;;;19.75;19.00;;;;;5.05;54.93;101079.25;5054414;28;45700;-75
2022/02/13 02:58:35;;;;;;;;;23.25;16.00;;;;;5.08;55.34;101079.94;5054635;28;45540;-76
2022/02/13 03:01:01;;;;;;;;;18.25;16.75;;;;;5.05;55.11;101085.28;5055037;28;45664;-73
2022/02/13 03:03:27;;;;;;;;;20.00;18.25;;;;;5.01;55.39;101080.28;5054200;28;45594;-75
2022/02/13 03:05:52;;;;;;;;;23.00;18.75;;;;;4.96;55.38;101064.03;5054030;28;46332;-75
2022/02/13 03:11:39;;;;;;;;;23.25;21.00;;;;;4.96;55.16;101075.28;5054503;28;45687;-76
2022/02/13 03:14:05;;;;;;;;;14.75;14.00;;;;;4.99;55.21;101079.47;5054553;28;45610;-74
2022/02/13 03:16:30;;;;;;;;;25.25;20.75;;;;;4.92;55.48;101068.50;5054377;28;46436;-74
2022/02/13 03:18:56;;;;;;;;;21.50;18.50;;;;;4.93;55.56;101058.94;5054363;28;45630;-74
2022/02/13 03:21:21;;;;;;;;;16.25;14.50;;;;;4.96;55.76;101062.28;5054405;28;45871;-75
2022/02/13 03:27:07;;;;;;;;;24.00;17.50;;;;;4.89;55.17;101042.66;5054309;28;45679;-73
2022/02/13 03:29:33;;;;;;;;;19.50;18.00;;;;;4.87;55.55;101035.84;5054275;28;45577;-74
2022/02/13 03:31:58;;;;;;;;;19.50;16.75;;;;;4.90;55.55;101035.72;5053341;28;45480;-76
2022/02/13 03:34:24;;;;;;;;;20.75;18.25;;;;;4.87;55.44;101030.66;5054442;28;46432;-75
2022/02/13 03:36:50;;;;;;;;;20.75;18.75;;;;;4.70;55.54;101007.97;5055693;28;46236;-76
2022/02/13 03:39:16;;;;;;;;;20.00;18.75;;;;;4.84;55.56;101028.19;5057083;28;45658;-76
2022/02/13 03:41:41;;;;;;;;;21.75;18.00;;;;;4.74;55.67;101012.16;5055878;28;45621;-77
2022/02/13 03:44:08;;;;;;;;;17.00;15.00;;;;;4.80;55.87;101026.63;5057713;28;46530;-76
2022/02/13 03:46:34;;;;;;;;;24.00;19.50;;;;;4.77;55.75;101031.94;5057830;28;46184;-76
2022/02/13 03:48:59;;;;;;;;;23.25;19.75;;;;;4.73;55.86;101026.03;5057905;28;45602;-75
2022/02/13 03:51:25;;;;;;;;;17.75;15.75;;;;;4.73;56.03;101020.00;5058072;28;45541;-76
2022/02/13 03:57:12;;;;;;;;;21.00;19.50;;;;;4.71;55.75;101019.19;5055739;28;46187;-75
2022/02/13 03:59:37;;;;;;;;;19.00;17.75;;;;;4.66;56.17;101014.19;5057294;28;45699;-77
2022/02/13 04:02:03;;;;;;;;;25.75;21.50;;;;;4.67;56.11;101008.09;5057532;28;45876;-75
2022/02/13 04:04:28;;;;;;;;;19.50;17.50;;;;;4.64;55.81;101013.44;5057202;28;46242;-74
2022/02/13 04:06:54;;;;;;;;;21.75;18.00;;;;;4.54;56.06;101001.72;5038978;28;47268;-75
2022/02/13 04:12:42;;;;;;;;;20.25;17.75;;;;;4.61;56.07;101016.97;5057324;28;45758;-75
2022/02/13 04:15:09;;;;;;;;;27.00;20.00;;;;;4.58;56.10;101004.16;5057291;28;46363;-74
2022/02/13 04:17:34;;;;;;;;;22.00;19.25;;;;;4.59;55.95;101011.00;5057003;28;47158;-76
2022/02/13 04:20:00;;;;;;;;;19.75;14.75;;;;;4.53;56.40;100994.84;5057094;28;45628;-76
2022/02/13 04:25:47;;;;;;;;;22.25;17.50;;;;;4.56;56.36;100990.38;5057114;28;46165;-73
2022/02/13 04:28:12;;;;;;;;;21.00;15.75;;;;;4.55;56.44;100999.06;5057065;28;46644;-76
2022/02/13 04:30:38;;;;;;;;;18.50;16.25;;;;;4.53;56.40;100981.88;5057008;28;45803;-76
2022/02/13 04:33:03;;;;;;;;;18.00;16.75;;;;;4.57;56.57;100993.81;5056859;28;45549;-76
2022/02/13 04:35:29;;;;;;;;;18.50;18.00;;;;;4.56;56.44;100995.56;5057081;28;45857;-76
2022/02/13 04:41:16;;;;;;;;;17.25;15.75;;;;;4.58;56.44;100985.13;5056744;28;45764;-74
2022/02/13 04:43:41;;;;;;;;;15.50;15.00;;;;;4.57;56.33;100973.91;5057291;28;45581;-75
2022/02/13 04:46:07;;;;;;;;;24.25;17.00;;;;;4.57;56.54;100970.47;5055539;28;45655;-77
2022/02/13 04:48:34;;;;;;;;;14.50;13.50;;;;;4.57;56.66;100968.72;5056662;28;46033;-76
2022/02/13 04:50:59;;;;;;;;;16.25;14.50;;;;;4.56;56.66;100961.84;5057020;28;45895;-76
2022/02/13 04:56:46;;;;;;;;;16.50;14.50;;;;;4.51;56.49;100952.56;5056656;28;45700;-75
2022/02/13 04:59:11;;;;;;;;;17.00;16.75;;;;;4.47;56.60;100944.06;5038473;28;46321;-75
2022/02/13 05:01:36;;;;;;;;;21.00;17.50;;;;;4.46;56.78;100942.38;5056541;28;45523;-76
2022/02/13 05:04:02;;;;;;;;;17.25;15.25;;;;;4.43;56.55;100939.88;5072129;28;45748;-76
2022/02/13 05:06:27;;;;;;;;;18.00;16.00;;;;;4.36;56.71;100920.31;5038697;28;47222;-75
2022/02/13 05:12:15;;;;;;;;;16.75;14.50;;;;;4.42;56.56;100930.44;5058676;28;45616;-75
2022/02/13 05:14:40;;;;;;;;;17.50;15.00;;;;;4.41;56.33;100927.91;5058659;28;45616;-76
2022/02/13 05:17:06;;;;;;;;;19.00;13.25;;;;;4.35;56.63;100921.22;5056106;28;46548;-74
2022/02/13 05:19:32;;;;;;;;;17.75;15.75;;;;;4.34;56.90;100919.50;5055923;28;47010;-74
2022/02/13 05:21:57;;;;;;;;;13.25;12.25;;;;;4.38;56.75;100917.63;5055925;28;45708;-74
2022/02/13 05:27:44;;;;;;;;;17.75;15.25;;;;;4.35;56.90;100910.84;5056125;28;45505;-75
2022/02/13 05:30:10;;;;;;;;;13.75;11.00;;;;;4.35;56.83;100903.06;5056049;28;47498;-76
2022/02/13 05:32:35;;;;;;;;;15.75;14.00;;;;;4.35;56.96;100897.03;5056119;28;45615;-75
2022/02/13 05:35:01;;;;;;;;;18.75;17.25;;;;;4.32;57.07;100902.34;5056528;28;45801;-75
2022/02/13 05:37:29;;;;;;;;;17.00;15.00;;;;;4.29;56.96;100892.09;5055606;28;47175;-76
2022/02/13 05:43:16;;;;;;;;;19.75;17.75;;;;;4.27;57.21;100891.28;5056382;28;45707;-75
2022/02/13 05:45:41;;;;;;;;;18.25;14.50;;;;;4.28;56.98;100887.78;5056238;28;45594;-75
2022/02/13 05:48:07;;;;;;;;;19.25;15.25;;;;;4.25;57.02;100882.75;5055240;28;47152;-75
2022/02/13 05:50:33;;;;;;;;;17.50;14.75;;;;;4.26;57.18;100898.25;5056186;28;46114;-76
2022/02/13 05:52:58;;;;;;;;;14.25;13.75;;;;;4.25;57.02;100899.16;5056056;28;46184;-78
2022/02/13 05:55:24;;;;;;;;;20.25;15.00;;;;;4.22;56.92;100892.31;5055748;28;45543;-76
2022/02/13 05:57:49;;;;;;;;;20.50;16.50;;;;;4.21;56.96;100882.84;5055113;28;46170;-75
2022/02/13 06:00:15;;;;;;;;;14.75;13.75;;;;;4.20;56.92;100880.34;5055252;28;46934;-74
2022/02/13 06:02:41;;;;;;;;;18.75;17.25;;;;;4.13;57.15;100871.97;5055725;28;45515;-76
2022/02/13 06:05:07;;;;;;;;;15.00;12.50;;;;;4.14;56.90;100875.41;5055688;28;45840;-76
2022/02/13 06:07:40;;;;;;;;;16.50;14.75;;;;;4.15;57.09;100880.53;5054334;28;46551;-76
2022/02/13 06:13:26;;;;;;;;;14.75;12.00;;;;;4.15;56.84;100888.31;5055537;28;45570;-76
2022/02/13 06:15:52;;;;;;;;;17.75;17.00;;;;;4.10;56.86;100871.25;5055511;28;45489;-75
2022/02/13 06:18:17;;;;;;;;;17.00;14.75;;;;;4.17;57.06;100880.44;5037373;28;47281;-74
2022/02/13 06:20:43;;;;;;;;;23.25;14.75;;;;;4.17;57.07;100877.84;5055453;28;45544;-77
2022/02/13 06:29:33;;;;;;;;;15.75;11.25;;;;;4.17;57.21;100877.84;5055035;28;45538;-77
2022/02/13 06:32:00;;;;;;;;;14.00;13.00;;;;;4.11;57.14;100871.16;5055041;28;46186;-76
2022/02/13 06:34:26;;;;;;;;;17.00;13.75;;;;;4.18;57.02;100885.59;5055337;28;45993;-76
2022/02/13 06:36:51;;;;;;;;;13.75;12.25;;;;;4.11;57.18;100870.31;5055124;28;45570;-76
2022/02/13 06:39:17;;;;;;;;;16.75;15.75;;;;;4.18;57.12;100872.63;5070659;28;48622;-75
2022/02/13 06:41:42;;;;;;;;;19.50;15.00;;;;;4.19;56.80;100873.47;5055023;28;47405;-76
2022/02/13 06:44:07;;;;;;;;;17.00;16.75;;;;;4.19;57.05;100870.88;5055332;28;45670;-77
2022/02/13 06:46:33;;;;;;;;;18.75;17.00;;;;;4.18;57.20;100864.00;5057910;28;45661;-76
2022/02/13 06:48:58;;;;;;;;;13.75;13.25;;;;;4.09;57.09;100847.06;5054100;28;47347;-76
2022/02/13 06:51:24;;;;;;;;;17.00;14.50;;;;;4.16;56.84;100851.09;5054611;28;46093;-75
2022/02/13 06:53:49;;;;;;;;;15.25;15.25;;;;;4.15;57.15;100844.25;5054099;28;46046;-75
2022/02/13 06:56:14;;;;;;;;;17.00;16.50;;;;;4.13;56.99;100837.41;5054960;28;45525;-74
2022/02/13 06:58:40;;;;;;;;;17.25;17.00;;;;;4.15;57.18;100833.88;5036564;28;47372;-76
2022/02/13 07:01:09;;;;;;;;;16.75;14.50;;;;;4.12;56.99;100828.78;5036818;28;47546;-76
2022/02/13 07:03:35;;;;;;;;;13.75;13.50;;;;;4.08;56.96;100822.06;5054832;28;45945;-77
2022/02/13 07:06:00;;;;;;;;;14.25;12.25;;;;;4.11;57.18;100824.50;5054494;28;45849;-75
2022/02/13 07:08:25;;;;;;;;;17.50;15.50;;;;;4.09;57.42;100820.31;5054590;28;47297;-77
2022/02/13 07:14:12;;;;;;;;;17.75;15.25;;;;;4.06;57.04;100823.00;5054564;28;45512;-76
2022/02/13 07:16:37;;;;;;;;;15.00;14.25;;;;;4.02;57.12;100813.69;5054891;28;45809;-74
2022/02/13 07:19:03;;;;;;;;;16.50;16.00;;;;;4.03;57.09;100823.16;5054184;28;45671;-76
2022/02/13 07:21:28;;;;;;;;;15.50;13.75;;;;;3.87;57.18;100794.41;5053127;28;48622;-76
2022/02/13 07:23:53;;;;;;;;;17.00;15.25;;;;;3.96;57.10;100812.19;5054252;28;45705;-76
2022/02/13 07:26:19;;;;;;;;;17.00;15.25;;;;;4.02;57.04;100829.22;5054617;28;45568;-76
2022/02/13 07:28:59;;;;;;;;;17.25;13.00;;;;;4.04;57.09;100825.69;5054104;28;46493;-76
2022/02/13 07:31:27;;;;;;;;;18.00;13.75;;;;;4.04;57.02;100819.66;5053910;28;47004;-76
2022/02/13 07:33:52;;;;;;;;;18.25;15.00;;;;;4.07;57.17;100822.94;5054382;28;45884;-76
2022/02/13 07:36:17;;;;;;;;;20.00;16.00;;;;;4.05;57.18;100822.16;5054726;28;45649;-75
2022/02/13 07:38:43;;;;;;;;;18.00;16.50;;;;;4.09;57.31;100826.34;5054489;28;46564;-76
2022/02/13 07:44:30;;;;;;;;;14.75;13.75;;;;;4.12;57.50;100831.38;5054778;28;45700;-77
2022/02/13 07:46:56;;;;;;;;;14.25;13.25;;;;;4.10;57.44;100825.41;5070578;28;45566;-76
2022/02/13 07:49:22;;;;;;;;;13.25;13.00;;;;;4.05;57.36;100806.59;5054268;28;47979;-77
2022/02/13 07:51:48;;;;;;;;;17.00;16.50;;;;;4.18;57.25;100817.31;5054609;28;46035;-75
2022/02/13 07:54:14;;;;;;;;;19.50;14.00;;;;;4.16;57.29;100807.00;5056071;28;45836;-77
2022/02/13 07:56:40;;;;;;;;;20.00;16.50;;;;;4.21;57.02;100799.88;5055901;28;45699;-77
2022/02/13 07:59:06;;;;;;;;;17.75;15.25;;;;;4.21;57.30;100799.88;5038717;28;47354;-76
2022/02/13 08:01:31;;;;;;;;;18.25;16.50;;;;;4.22;57.15;100793.78;5055937;28;46331;-77
2022/02/13 08:03:57;;;;;;;;;19.75;17.25;;;;;4.23;57.59;100779.94;5054771;28;45565;-75
2022/02/13 08:06:23;;;;;;;;;17.50;15.75;;;;;4.23;57.27;100760.94;5054792;28;45566;-76
2022/02/13 08:08:49;;;;;;;;;20.25;17.25;;;;;4.30;57.31;100761.53;5054516;28;45656;-76
2022/02/13 08:14:36;;;;;;;;;17.50;14.00;;;;;4.32;57.06;100755.34;5053405;28;45964;-76
2022/02/13 08:17:03;;;;;;;;;19.50;17.00;;;;;4.39;57.41;100746.41;5053430;28;45750;-78
2022/02/13 08:19:30;;;;;;;;;26.75;21.75;;;;;4.35;57.34;100726.69;5053435;28;47424;-78
2022/02/13 08:21:57;;;;;;;;;19.25;17.00;;;;;4.46;57.38;100742.63;5053112;28;46003;-77
2022/02/13 08:27:44;;;;;;;;;24.50;20.00;;;;;4.45;57.54;100725.38;5053737;28;45736;-77
2022/02/13 08:30:11;;;;;;;;;20.00;18.25;;;;;4.54;57.36;100737.94;5037519;28;45954;-78
2022/02/13 08:32:37;;;;;;;;;23.50;19.25;;;;;4.55;57.56;100728.41;5056392;28;47020;-77
2022/02/13 08:35:02;;;;;;;;;21.25;17.25;;;;;4.62;57.32;100733.28;5056471;28;45497;-77
2022/02/13 08:37:28;;;;;;;;;13.00;12.25;;;;;4.58;57.17;100720.50;5056756;28;45703;-78
2022/02/13 08:43:15;;;;;;;;;15.50;14.50;;;;;4.77;57.23;100723.09;5056369;28;45523;-77
2022/02/13 08:45:41;;;;;;;;;18.25;16.75;;;;;4.62;57.29;100690.91;5056764;28;45621;-77
2022/02/13 08:48:06;;;;;;;;;18.00;16.25;;;;;4.76;57.50;100708.44;5056676;28;45493;-76
2022/02/13 08:50:32;;;;;;;;;18.25;14.75;;;;;4.61;57.68;100665.88;5056556;28;45890;-78
2022/02/13 08:53:00;;;;;;;;;23.50;19.50;;;;;4.66;57.68;100661.31;5056485;28;45838;-76
2022/02/13 08:58:51;;;;;;;;;21.00;14.00;;;;;4.96;57.81;100704.03;5054377;28;45725;-78
2022/02/13 09:01:16;;;;;;;;;18.50;17.00;;;;;4.89;57.65;100684.47;5056442;28;46414;-77
2022/02/13 09:03:42;;;;;;;;;20.00;16.50;;;;;4.99;57.69;100701.28;5056374;28;46442;-77
2022/02/13 09:06:07;;;;;;;;;18.75;16.50;;;;;5.01;57.52;100704.66;5056365;28;45647;-76
2022/02/13 09:08:33;;;;;;;;;19.75;19.00;;;;;5.08;57.55;100697.41;5056996;28;45694;-79
2022/02/13 09:14:20;;;;;;;;;19.50;17.50;;;;;5.12;57.57;100690.34;5056714;28;45713;-78
2022/02/13 09:16:45;;;;;;;;;18.75;18.75;;;;;5.19;57.99;100697.75;5056826;28;45536;-77
2022/02/13 09:19:11;;;;;;;;;19.00;16.50;;;;;5.14;57.91;100667.72;5056035;28;45629;-78
2022/02/13 09:21:37;;;;;;;;;15.50;15.00;;;;;5.24;57.93;100677.59;5056150;28;46331;-77
2022/02/13 09:24:03;;;;;;;;;21.75;20.00;;;;;5.34;57.74;100681.47;5056437;28;46314;-79
2022/02/13 09:29:52;;;;;;;;;20.25;19.75;;;;;5.46;58.02;100664.41;5055812;28;45693;-79
2022/02/13 09:32:18;;;;;;;;;22.25;19.00;;;;;5.50;58.13;100660.75;5038009;28;47494;-77
2022/02/13 09:34:43;;;;;;;;;25.25;20.25;;;;;5.57;58.12;100646.53;5055992;28;46150;-77
2022/02/13 09:37:08;;;;;;;;;27.00;18.75;;;;;5.61;58.37;100621.25;5055843;28;45586;-74
2022/02/13 09:39:34;;;;;;;;;23.50;21.50;;;;;5.69;58.62;100616.50;5055940;28;45589;-75
2022/02/13 09:45:21;;;;;;;;;21.50;17.00;;;;;5.82;58.91;100601.97;5055505;28;45766;-75
2022/02/13 09:47:47;;;;;;;;;23.00;18.75;;;;;5.82;58.86;100591.56;5056012;28;45605;-78
2022/02/13 09:50:13;;;;;;;;;18.75;18.25;;;;;5.99;58.60;100591.56;5055939;28;46054;-84
2022/02/13 09:52:39;;;;;;;;;20.00;18.75;;;;;6.08;59.28;100583.28;5038525;28;46020;-77
2022/02/13 09:55:05;;;;;;;;;22.00;20.75;;;;;6.15;59.02;100570.78;5056141;28;45787;-79
2022/02/13 10:01:07;;;;;;;;;20.25;18.50;;;;;6.32;58.96;100575.91;5054417;28;45677;-77
2022/02/13 10:03:43;;;;;;;;;24.00;17.00;;;;;6.36;58.98;100559.22;5053611;28;46784;-80
2022/02/13 10:06:11;;;;;;;;;24.25;18.75;;;;;6.47;59.13;100561.25;5055365;28;46163;-81
2022/02/13 10:08:45;;;;;;;;;24.50;20.50;;;;;6.52;59.44;100547.03;5056290;28;45710;-81
2022/02/13 10:11:17;;;;;;;;;20.00;17.50;;;;;6.52;59.35;100535.78;5055763;28;45553;-82
2022/02/13 10:13:44;;;;;;;;;21.75;18.25;;;;;6.68;59.11;100542.66;5055822;28;45575;-85
2022/02/13 10:16:25;;;;;;;;;18.75;16.75;;;;;6.76;59.47;100534.41;5056247;28;46246;-80
2022/02/13 10:19:05;;;;;;;;;24.00;20.50;;;;;6.83;59.49;100534.91;5055304;28;46013;-82
2022/02/13 10:21:43;;;;;;;;;20.50;18.50;;;;;6.89;59.76;100522.38;5037197;28;45603;-81
2022/02/13 10:24:11;;;;;;;;;26.50;19.00;;;;;6.97;59.88;100511.50;5036929;28;48479;-79
2022/02/13 10:26:37;;;;;;;;;20.00;20.00;;;;;7.04;59.80;100518.88;5055097;28;46377;-81
2022/02/13 10:29:03;;;;;;;;;19.00;17.50;;;;;7.01;59.50;100502.63;5055108;28;45584;-79
2022/02/13 10:31:29;;;;;;;;;20.50;18.75;;;;;7.15;60.08;100513.06;5036887;28;45725;-81
2022/02/13 10:33:59;;;;;;;;;18.25;16.75;;;;;7.20;59.62;100507.56;5054840;28;45623;-81
2022/02/13 10:36:26;;;;;;;;;21.00;18.25;;;;;7.32;59.76;100519.88;5055108;28;46089;-79
2022/02/13 10:38:52;;;;;;;;;21.25;18.00;;;;;7.33;59.87;100514.59;5053410;28;45910;-78
2022/02/13 10:41:29;;;;;;;;;13.75;13.00;;;;;7.41;60.23;100507.16;5054961;28;45538;-77
2022/02/13 10:44:06;;;;;;;;;19.50;17.50;;;;;7.50;60.43;100503.97;5055244;28;46523;-79
2022/02/13 10:46:37;;;;;;;;;18.50;15.25;;;;;7.50;60.25;100498.75;5053326;28;47921;-80
2022/02/13 10:49:05;;;;;;;;;18.50;17.50;;;;;7.42;60.23;100469.72;5055455;28;45824;-81
2022/02/13 10:51:32;;;;;;;;;18.75;14.75;;;;;7.32;60.62;100447.75;5055654;28;45632;-78
2022/02/13 10:53:59;;;;;;;;;20.25;18.75;;;;;7.69;60.29;100498.50;5054805;28;47520;-81
2022/02/13 10:56:25;;;;;;;;;19.25;17.75;;;;;7.72;60.31;100482.66;5054944;28;46080;-80
2022/02/13 10:58:55;;;;;;;;;20.25;17.50;;;;;7.71;60.45;100456.69;5053663;28;45602;-79
2022/02/13 11:01:22;;;;;;;;;25.00;22.50;;;;;7.62;60.43;100420.75;5054844;28;45593;-79
2022/02/13 11:03:48;;;;;;;;;17.00;15.50;;;;;8.06;60.53;100470.13;5054454;28;45826;-77
2022/02/13 11:06:14;;;;;;;;;15.25;14.75;;;;;8.13;60.61;100464.44;5054277;28;46158;-79
2022/02/13 11:08:44;;;;;;;;;16.75;13.75;;;;;8.18;60.75;100436.28;5054518;28;45606;-80
2022/02/13 11:11:11;;;;;;;;;19.50;16.00;;;;;8.33;60.96;100444.94;5054706;28;45443;-79
2022/02/13 11:13:37;;;;;;;;;21.75;17.25;;;;;8.39;60.88;100445.38;5036901;28;45737;-79
2022/02/13 11:16:30;;;;;;;;;18.50;17.75;;;;;8.51;60.96;100445.53;5054659;28;45642;-81
2022/02/13 11:19:14;;;;;;;;;19.50;18.50;;;;;8.47;61.21;100413.56;5037054;28;45832;-79
2022/02/13 11:21:42;;;;;;;;;16.50;14.00;;;;;8.63;60.94;100423.84;5055252;28;45709;-81
2022/02/13 11:24:26;;;;;;;;;19.00;16.75;;;;;8.76;61.08;100425.53;5054911;28;45680;-79
2022/02/13 11:26:52;;;;;;;;;17.75;11.00;;;;;8.64;61.15;100378.47;5054763;28;46213;-79
2022/02/13 11:29:18;;;;;;;;;16.25;16.00;;;;;8.96;61.22;100425.97;5055089;28;45822;-77
2022/02/13 11:31:55;;;;;;;;;22.75;16.00;;;;;8.98;61.09;100388.34;5054974;28;45714;-80
2022/02/13 11:34:26;;;;;;;;;22.00;21.00;;;;;9.14;61.19;100381.13;5054013;28;45585;-79
2022/02/13 11:36:56;;;;;;;;;18.75;15.75;;;;;9.24;60.97;100370.88;5053938;28;46190;-78
2022/02/13 11:39:34;;;;;;;;;20.75;18.00;;;;;9.35;60.92;100357.06;5054362;28;45457;-78
2022/02/13 11:42:05;;;;;;;;;16.00;14.50;;;;;9.43;61.07;100347.75;5054713;28;45756;-80
2022/02/13 11:44:51;;;;;;;;;16.75;16.00;;;;;9.47;60.73;100330.88;5054251;28;46462;-77
2022/02/13 11:47:19;;;;;;;;;19.25;16.75;;;;;9.61;61.10;100329.91;5054194;28;45681;-79
2022/02/13 11:50:03;;;;;;;;;20.75;18.00;;;;;9.75;60.96;100316.69;5053604;28;45656;-83
2022/02/13 11:52:29;;;;;;;;;18.75;16.75;;;;;9.84;60.40;100309.94;5056330;28;45464;-82
2022/02/13 11:54:57;;;;;;;;;18.75;17.50;;;;;9.93;60.85;100307.47;5055150;28;46822;-81
2022/02/13 11:57:25;;;;;;;;;16.50;13.50;;;;;10.01;60.45;100294.66;5053564;28;46368;-81
2022/02/13 12:00:00;;;;;;;;;15.25;13.75;;;;;10.12;60.36;100288.66;5053732;28;45519;-79
2022/02/13 12:02:31;;;;;;;;;28.25;23.25;;;;;10.23;60.49;100287.88;5053443;28;45652;-79
2022/02/13 12:05:02;;;;;;;;;20.00;18.75;;;;;10.31;60.31;100256.72;5056211;28;45752;-80
2022/02/13 12:07:58;;;;;;;;;21.75;20.75;;;;;10.32;59.73;100246.13;5057102;28;46263;-82
2022/02/13 12:10:39;;;;;;;;;17.25;16.50;;;;;10.36;60.13;100223.19;4995819;28;45968;-81
2022/02/13 12:13:07;;;;;;;;;18.00;16.75;;;;;10.57;59.87;100242.47;4995826;28;46019;-80
2022/02/13 12:15:32;;;;;;;;;19.00;16.25;;;;;10.65;59.62;100237.47;4995485;28;46743;-81
2022/02/13 12:18:06;;;;;;;;;14.75;13.25;;;;;10.75;59.47;100241.03;4994682;28;45793;-79
2022/02/13 12:20:34;;;;;;;;;15.50;12.25;;;;;10.79;59.33;100211.06;4994862;28;45640;-81
2022/02/13 12:23:07;;;;;;;;;14.75;14.50;;;;;10.94;59.31;100225.56;4979203;28;45584;-78
2022/02/13 12:25:35;;;;;;;;;17.50;17.25;;;;;10.95;59.46;100210.69;4994941;28;45938;-79
2022/02/13 12:28:01;;;;;;;;;20.25;18.50;;;;;11.02;59.11;100200.50;4995431;28;45960;-80
2022/02/13 12:30:27;;;;;;;;;16.75;14.50;;;;;11.24;58.80;100201.31;4997734;28;45667;-80
2022/02/13 12:32:57;;;;;;;;;15.25;14.50;;;;;11.34;58.84;100198.75;4998887;28;45718;-80
2022/02/13 12:35:28;;;;;;;;;17.25;15.50;;;;;11.44;58.74;100196.25;4996225;28;45679;-80
2022/02/13 12:37:54;;;;;;;;;14.00;13.25;;;;;11.53;58.60;100190.25;4996689;28;46401;-80
2022/02/13 12:40:28;;;;;;;;;20.50;15.75;;;;;11.44;58.32;100163.00;4998051;28;45827;-80
2022/02/13 12:43:02;;;;;;;;;21.00;16.25;;;;;11.68;58.31;100171.47;4995574;28;45719;-80
2022/02/13 12:45:28;;;;;;;;;13.50;11.25;;;;;11.75;58.23;100167.41;4995352;28;45706;-79
2022/02/13 12:47:58;;;;;;;;;14.00;13.00;;;;;11.65;57.79;100131.53;5039348;28;46452;-80
2022/02/13 12:50:28;;;;;;;;;12.25;12.25;;;;;11.87;57.85;100151.59;5057169;28;45872;-79
2022/02/13 12:53:21;;;;;;;;;13.75;11.25;;;;;11.95;57.87;100154.41;5073383;28;45576;-79
2022/02/13 12:55:47;;;;;;;;;13.75;11.50;;;;;11.91;57.72;100130.22;5056399;28;47860;-78
2022/02/13 12:58:13;;;;;;;;;16.75;14.00;;;;;12.07;57.81;100135.00;5063084;28;45714;-76